Terminal Aerodrome Forecast
Issued by NWS Charleston, WV

Current Version | Previous Version | Graphics & Text | Print | Product List | Glossary On
Versions: 1 2 3 4 5 6 7 8 9 10 11 12 13 14 15 16 17 18 19 20 21 22 23 24 25
000
FTUS41 KRLX 252331
TAFBKW
TAF
KBKW 252331Z 2600/2624 33009KT 3SM -SHRADZ BR OVC004
      TEMPO 2600/2604 1SM -SHRADZ BR OVC002
     FM260700 32006KT 4SM BR BKN008
     FM261100 35003KT 2SM BR BKN003
     FM261300 34003KT P6SM SCT025
     FM261600 34003KT P6SM SCT035
     FM261900 00000KT P6SM BKN060=

USA.gov is the U.S. government's official web portal to all federal, state and local government web resources and services.